Time;durP1;ratioP1;P1;durP2;ratioP2;P2;SDS_P1;SDS_P2;PMS_P1;PMS_P2;Temp;Humidity;BMP_temperature;BMP_pressure;BME280_temperature;BME280_humidity;BME280_pressure;Samples;Min_cycle;Max_cycle;Signal;HPM_P1;HPM_P2
2021/03/24 00:01:18;;;;;;;0.70;0.60;;;4.60;99.90;;;5.03;100.00;-589.31;5033809;28;20543;-69
2021/03/24 00:03:47;;;;;;;0.70;0.60;;;4.70;99.90;;;5.06;100.00;-561.66;5032481;28;20711;-69
2021/03/24 00:06:16;;;;;;;0.70;0.60;;;4.70;99.90;;;4.82;100.00;-1366.81;5031802;28;20198;-69
2021/03/24 00:08:43;;;;;;;0.70;0.60;;;4.50;99.90;;;4.94;100.00;199.44;5032411;28;20244;-69
2021/03/24 00:11:13;;;;;;;1.13;1.02;;;4.50;99.90;;;4.95;100.00;219.47;5034077;28;20229;-69
2021/03/24 00:13:41;;;;;;;0.70;0.60;;;4.50;99.90;;;4.76;100.00;298.16;5031268;28;20234;-69
2021/03/24 00:16:11;;;;;;;0.70;0.60;;;4.40;99.90;;;4.69;100.00;739.66;5031018;28;20208;-69
2021/03/24 00:18:39;;;;;;;0.70;0.60;;;4.30;99.90;;;4.56;100.00;901.00;5033858;28;20202;-69
2021/03/24 00:21:07;;;;;;;0.80;0.80;;;4.10;99.90;;;4.36;100.00;929.41;5031630;28;20269;-69
2021/03/24 00:23:34;;;;;;;0.70;0.60;;;4.00;99.90;;;4.29;100.00;1932.31;5033247;28;20175;-69
2021/03/24 00:26:02;;;;;;;0.70;0.60;;;3.90;99.90;;;4.22;100.00;2545.78;5033287;28;20213;-68
2021/03/24 00:28:29;;;;;;;0.70;0.60;;;3.90;99.90;;;4.19;100.00;2615.38;5031032;28;20201;-69
2021/03/24 00:30:56;;;;;;;0.80;0.60;;;3.90;99.90;;;4.38;100.00;2447.50;5032597;28;20558;-68
2021/03/24 00:33:26;;;;;;;0.70;0.60;;;4.00;99.90;;;4.29;100.00;1293.22;5013494;28;20246;-69
2021/03/24 00:35:55;;;;;;;0.70;0.60;;;3.90;99.90;;;4.25;100.00;733.88;5031046;28;20202;-69
2021/03/24 00:38:25;;;;;;;1.10;1.00;;;3.90;99.90;;;4.20;100.00;214.53;5031437;28;20205;-69
2021/03/24 00:40:56;;;;;;;0.85;0.85;;;3.80;99.90;;;4.04;100.00;-484.84;5031850;28;20659;-69
2021/03/24 00:43:24;;;;;;;0.70;0.70;;;3.70;99.90;;;4.05;100.00;-419.97;5029368;28;20248;-69
2021/03/24 00:45:51;;;;;;;0.70;0.70;;;3.80;99.90;;;4.01;100.00;-1013.63;5033158;28;20293;-69
2021/03/24 00:48:25;;;;;;;0.70;0.60;;;3.80;99.90;;;4.08;100.00;-1322.50;5033453;28;20214;-69
2021/03/24 00:50:52;;;;;;;0.70;0.60;;;3.80;99.90;;;4.33;100.00;-1630.69;5031904;28;20202;-69
2021/03/24 00:53:19;;;;;;;0.70;0.60;;;3.90;99.90;;;4.30;100.00;-2378.91;5032604;28;20194;-69
2021/03/24 00:55:47;;;;;;;0.70;0.60;;;3.90;99.90;;;4.49;100.00;-2538.06;5033331;28;20190;-69
2021/03/24 00:58:15;;;;;;;0.70;0.60;;;4.00;99.90;;;4.57;100.00;-2941.94;5032228;28;20194;-69
2021/03/24 01:00:44;;;;;;;0.70;0.60;;;4.20;99.90;;;4.66;100.00;-3410.69;5031990;28;20669;-70
2021/03/24 01:03:12;;;;;;;0.80;0.75;;;4.20;99.90;;;4.57;100.00;-3909.44;5033021;28;20260;-69
2021/03/24 01:05:44;;;;;;;1.55;1.45;;;4.10;99.90;;;4.51;100.00;-3665.13;5025020;28;20217;-69
2021/03/24 01:08:15;;;;;;;0.70;0.60;;;4.10;99.90;;;4.31;100.00;-3832.19;5013096;28;20176;-70
2021/03/24 01:10:44;;;;;;;0.70;0.60;;;3.90;99.90;;;4.32;100.00;-2972.22;5019017;28;20190;-69
2021/03/24 01:13:14;;;;;;;0.70;0.60;;;3.90;99.90;;;4.39;100.00;-2465.97;5027276;28;20194;-69
2021/03/24 01:15:41;;;;;;;0.70;0.60;;;4.00;99.90;;;4.42;100.00;-2463.41;5032985;28;20257;-70
2021/03/24 01:18:09;;;;;;;0.70;0.60;;;4.00;99.90;;;4.35;100.00;-2575.75;5032584;28;20209;-69
2021/03/24 01:20:39;;;;;;;0.70;0.60;;;4.00;99.90;;;4.23;100.00;-2825.28;5031414;28;20662;-69
2021/03/24 01:23:07;;;;;;;0.70;0.60;;;4.00;99.90;;;4.28;100.00;-2456.25;5033693;28;20198;-69
2021/03/24 01:25:35;;;;;;;0.80;0.80;;;3.90;99.90;;;4.39;100.00;-2164.25;5035644;28;20194;-69
2021/03/24 01:28:06;;;;;;;0.70;0.70;;;4.00;99.90;;;4.35;100.00;-2478.50;5037149;28;20236;-69
2021/03/24 01:30:36;;;;;;;0.70;0.60;;;3.90;99.90;;;4.15;100.00;-2860.34;5049689;28;20201;-69
2021/03/24 01:33:04;;;;;;;0.70;0.60;;;3.80;99.90;;;4.03;100.00;-2755.88;5035563;28;20225;-69
2021/03/24 01:35:33;;;;;;;0.70;0.60;;;3.60;99.90;;;3.98;100.00;-2424.56;5034762;28;20194;-69
2021/03/24 01:38:00;;;;;;;0.70;0.60;;;3.60;99.90;;;3.93;100.00;-2369.84;5034000;28;20724;-69
2021/03/24 01:40:37;;;;;;;0.70;0.60;;;3.60;99.90;;;3.98;100.00;-2240.13;5034159;28;20191;-69
2021/03/24 01:43:08;;;;;;;0.70;0.60;;;3.60;99.90;;;3.85;100.00;-2693.91;5036872;28;20277;-69
2021/03/24 01:46:24;;;;;;;0.70;0.60;;;3.50;99.90;;;3.83;100.00;-2716.38;5035543;28;20175;-69
2021/03/24 01:48:57;;;;;;;0.70;0.60;;;3.50;99.90;;;3.92;100.00;-2429.69;5035278;28;20260;-69
2021/03/24 01:51:29;;;;;;;0.70;0.60;;;3.60;99.90;;;3.93;100.00;-2673.84;5035360;28;20216;-69
2021/03/24 01:53:57;;;;;;;0.70;0.60;;;3.50;99.90;;;3.87;100.00;-3132.31;5034764;28;20224;-69
2021/03/24 01:56:28;;;;;;;0.70;0.60;;;3.50;99.90;;;3.92;100.00;-3421.22;5036191;28;20193;-69
2021/03/24 01:58:56;;;;;;;0.70;0.60;;;3.50;99.90;;;4.00;100.00;-3316.53;5035456;28;20210;-69
2021/03/24 02:01:24;;;;;;;0.70;0.60;;;3.60;99.90;;;3.96;100.00;-3730.09;5020051;28;20187;-69
2021/03/24 02:03:52;;;;;;;1.70;1.60;;;3.60;99.90;;;3.99;100.00;-3495.91;5032541;28;20228;-69
2021/03/24 02:06:27;;;;;;;0.70;0.60;;;3.60;99.90;;;4.06;100.00;-3206.84;5035543;28;20205;-69
2021/03/24 02:09:08;;;;;;;0.70;0.60;;;3.70;99.90;;;4.06;100.00;-3246.72;5034516;28;20178;-69
2021/03/24 02:11:44;;;;;;;0.73;0.73;;;3.70;99.90;;;4.06;100.00;-3196.88;5051507;28;20194;-69
2021/03/24 02:14:19;;;;;;;0.85;0.85;;;3.60;99.90;;;4.04;100.00;-3109.69;5034753;28;20624;-69
2021/03/24 02:16:49;;;;;;;0.70;0.70;;;3.60;99.90;;;4.08;100.00;-2877.91;5036092;28;20657;-69
2021/03/24 02:19:47;;;;;;;0.70;0.60;;;3.60;99.90;;;4.04;100.00;-2935.28;5034668;28;20229;-69
2021/03/24 02:22:18;;;;;;;0.70;0.60;;;3.70;99.90;;;4.04;100.00;-2603.84;5034738;28;20213;-69
2021/03/24 02:24:56;;;;;;;0.70;0.60;;;3.60;99.90;;;3.89;100.00;-2693.84;5052918;28;20225;-69
2021/03/24 02:27:30;;;;;;;0.80;0.80;;;3.50;99.90;;;3.86;100.00;-2629.13;5040534;28;20194;-68
2021/03/24 02:30:06;;;;;;;0.70;0.60;;;3.40;99.90;;;3.76;100.00;-2420.06;5033648;28;20189;-70
2021/03/24 02:32:40;;;;;;;0.70;0.60;;;3.30;99.90;;;3.72;100.00;-2238.34;5035360;28;20236;-69
2021/03/24 02:35:17;;;;;;;0.70;0.60;;;3.40;99.90;;;3.67;100.00;-2485.03;5033122;28;20198;-69
2021/03/24 02:37:46;;;;;;;0.70;0.60;;;3.30;99.90;;;3.69;100.00;-2584.63;5033863;28;20178;-69
2021/03/24 02:40:17;;;;;;;0.70;0.60;;;3.20;99.90;;;3.62;100.00;-3242.19;5034822;28;20186;-69
2021/03/24 02:42:50;;;;;;;0.70;0.60;;;3.20;99.90;;;3.71;100.00;-3067.78;5035790;28;20201;-69
2021/03/24 02:45:30;;;;;;;0.80;0.70;;;3.30;99.90;;;3.75;100.00;-3316.75;5035637;28;20190;-68
2021/03/24 02:48:01;;;;;;;0.70;0.60;;;3.30;99.90;;;3.77;100.00;-3431.31;5035590;28;20174;-68
2021/03/24 02:50:30;;;;;;;0.70;0.60;;;3.40;99.90;;;3.97;100.00;-3264.25;5034606;28;20217;-69
2021/03/24 02:53:01;;;;;;;0.70;0.60;;;3.50;99.90;;;3.90;100.00;-3767.47;5014305;28;20238;-69
2021/03/24 02:55:31;;;;;;;0.70;0.60;;;3.50;99.90;;;4.02;100.00;-3500.88;5014084;28;20285;-68
2021/03/24 02:57:59;;;;;;;0.70;0.60;;;3.60;99.90;;;4.09;100.00;-3665.28;5014443;28;20270;-69
2021/03/24 03:00:28;;;;;;;0.70;0.60;;;3.60;99.90;;;4.13;100.00;-3206.78;5028293;28;21424;-69
2021/03/24 03:02:59;;;;;;;0.70;0.60;;;3.60;99.90;;;4.13;100.00;-2820.50;5033490;28;20204;-69
2021/03/24 03:05:30;;;;;;;0.70;0.60;;;3.70;99.90;;;4.13;100.00;-2633.56;5034752;28;20639;-68
2021/03/24 03:08:05;;;;;;;0.70;0.60;;;3.60;99.90;;;3.96;100.00;-2524.28;5035146;28;20174;-68
2021/03/24 03:10:44;;;;;;;0.70;0.60;;;3.50;99.90;;;3.88;100.00;-1826.72;5033872;28;20201;-68
2021/03/24 03:13:18;;;;;;;0.70;0.60;;;3.40;99.90;;;3.76;100.00;-1528.13;5035211;28;20586;-68
2021/03/24 03:15:58;;;;;;;0.70;0.60;;;3.30;99.90;;;3.66;100.00;-1107.47;5034082;28;20268;-68
2021/03/24 03:18:34;;;;;;;0.70;0.60;;;3.20;99.90;;;3.71;100.00;-678.59;5033574;28;20307;-69
2021/03/24 03:21:08;;;;;;;0.70;0.60;;;3.30;99.90;;;3.82;100.00;-224.31;5033567;28;20561;-69
2021/03/24 03:23:37;;;;;;;0.70;0.60;;;3.30;99.90;;;4.00;100.00;48.59;5034686;28;20249;-69
2021/03/24 03:26:17;;;;;;;0.70;0.60;;;3.50;99.90;;;3.88;100.00;-774.91;5034498;28;20635;-70
2021/03/24 03:28:50;;;;;;;0.70;0.60;;;3.40;99.90;;;3.88;100.00;-510.66;5034873;28;20170;-70
2021/03/24 03:31:25;;;;;;;1.23;1.13;;;3.30;99.90;;;3.78;100.00;-326.78;5032816;28;20194;-69
2021/03/24 03:33:55;;;;;;;0.80;0.80;;;3.30;99.90;;;3.70;100.00;-205.13;5032495;28;20213;-70
2021/03/24 03:36:25;;;;;;;0.70;0.70;;;3.30;99.90;;;3.69;100.00;206.16;5029134;28;20213;-69
2021/03/24 03:38:55;;;;;;;0.70;0.60;;;3.20;99.90;;;3.65;100.00;382.88;5034439;28;20572;-69
2021/03/24 03:41:25;;;;;;;0.70;0.70;;;3.20;99.90;;;3.72;100.00;854.59;5033713;28;20201;-69
2021/03/24 03:43:55;;;;;;;0.70;0.60;;;3.20;99.90;;;3.67;100.00;614.84;5032534;28;20197;-69
2021/03/24 03:46:28;;;;;;;0.70;0.70;;;3.20;99.90;;;3.65;100.00;375.38;5034358;28;20179;-69
2021/03/24 03:48:56;;;;;;;0.70;0.60;;;3.20;99.90;;;3.64;100.00;355.38;5033872;28;20220;-69
2021/03/24 03:51:34;;;;;;;1.73;1.60;;;3.20;99.90;;;3.56;100.00;60.72;5034309;28;20730;-69
2021/03/24 03:54:12;;;;;;;0.70;0.60;;;3.10;99.90;;;3.68;100.00;804.41;5033564;28;20293;-69
2021/03/24 03:56:48;;;;;;;0.70;0.60;;;3.20;99.90;;;3.70;100.00;879.34;5033226;28;20281;-69
2021/03/24 03:59:23;;;;;;;0.70;0.60;;;3.20;99.90;;;3.79;100.00;727.91;5032906;28;20201;-69
2021/03/24 04:01:54;;;;;;;0.70;0.60;;;3.30;99.90;;;3.81;100.00;675.75;5014715;28;20206;-69
2021/03/24 04:04:26;;;;;;;0.70;0.60;;;3.30;99.90;;;3.94;100.00;741.53;5021279;28;20301;-69
2021/03/24 04:06:58;;;;;;;0.70;0.70;;;3.30;99.90;;;3.98;100.00;854.03;5029056;28;20257;-69
2021/03/24 04:09:27;;;;;;;0.70;0.60;;;3.40;99.90;;;3.82;100.00;735.66;5031813;28;20552;-69
2021/03/24 04:11:54;;;;;;;0.70;0.60;;;3.30;99.90;;;3.69;100.00;809.44;5033143;28;20225;-69
2021/03/24 04:14:29;;;;;;;0.70;0.60;;;3.20;99.90;;;3.68;100.00;1330.53;5033403;28;20202;-69
2021/03/24 04:16:56;;;;;;;0.70;0.60;;;3.20;99.90;;;3.76;100.00;1767.69;5032341;28;20200;-69
2021/03/24 04:19:36;;;;;;;0.70;0.60;;;3.20;99.90;;;3.79;100.00;1433.69;5049072;28;20210;-69
2021/03/24 04:22:04;;;;;;;0.70;0.60;;;3.30;99.90;;;3.72;100.00;1662.50;5033195;28;20200;-68
2021/03/24 04:24:37;;;;;;;0.70;0.60;;;3.20;99.90;;;3.69;100.00;1954.09;5033036;28;20286;-68
2021/03/24 04:27:09;;;;;;;0.70;0.60;;;3.20;99.90;;;3.63;100.00;2040.78;5048761;28;20214;-68
2021/03/24 04:29:40;;;;;;;0.82;0.80;;;3.10;99.90;;;3.74;100.00;2660.50;5033994;28;20261;-69
2021/03/24 04:32:10;;;;;;;0.70;0.60;;;3.20;99.90;;;3.66;100.00;2634.75;5032129;28;20232;-69
2021/03/24 04:34:38;;;;;;;0.70;0.60;;;3.20;99.90;;;3.65;100.00;2759.34;5033002;28;20609;-69
2021/03/24 04:37:14;;;;;;;0.70;0.60;;;3.20;99.90;;;3.71;100.00;2959.59;5032916;28;20194;-68
2021/03/24 04:39:48;;;;;;;0.70;0.65;;;3.20;99.90;;;3.54;100.00;2314.22;5032998;28;20185;-69
2021/03/24 04:42:22;;;;;;;0.80;0.80;;;3.10;99.90;;;3.62;100.00;3068.34;5019819;28;20202;-69
2021/03/24 04:44:56;;;;;;;0.70;0.70;;;3.10;99.90;;;3.50;100.00;2598.09;5032777;28;20202;-69
2021/03/24 04:47:28;;;;;;;0.70;0.57;;;3.00;99.90;;;3.36;100.00;2626.63;5033030;28;20182;-69
2021/03/24 04:50:02;;;;;;;0.70;0.70;;;2.90;99.90;;;3.41;100.00;3477.53;5031583;28;20218;-70
2021/03/24 04:52:32;;;;;;;0.70;0.60;;;2.90;99.90;;;3.42;100.00;3998.97;5012266;28;20198;-69
2021/03/24 04:55:09;;;;;;;0.70;0.70;;;2.90;99.90;;;3.29;100.00;3755.44;5023614;28;20198;-70
2021/03/24 04:57:36;;;;;;;0.90;0.90;;;2.90;99.90;;;3.30;100.00;3842.78;5013091;28;20662;-70
2021/03/24 05:00:20;;;;;;;0.70;0.70;;;2.90;99.90;;;3.39;100.00;4305.50;5013757;28;20227;-71
2021/03/24 05:02:54;;;;;;;0.70;0.60;;;2.90;99.90;;;3.56;100.00;4834.22;5013613;28;20191;-69
2021/03/24 05:05:26;;;;;;;0.70;0.60;;;3.00;99.90;;;3.68;100.00;4716.06;5024487;28;20202;-69
2021/03/24 05:08:02;;;;;;;0.77;0.77;;;3.10;99.90;;;3.75;100.00;4777.03;5061832;28;20551;-69
2021/03/24 05:10:32;;;;;;;0.70;0.60;;;3.20;99.90;;;3.77;100.00;4397.88;5051645;28;20645;-69
2021/03/24 05:13:10;;;;;;;0.70;0.63;;;3.20;99.90;;;3.60;100.00;4173.44;5040934;28;20198;-69
2021/03/24 05:15:44;;;;;;;0.70;0.60;;;3.10;99.90;;;3.64;100.00;4396.09;5026891;28;20698;-69
2021/03/24 05:18:14;;;;;;;0.70;0.63;;;3.10;99.90;;;3.60;100.00;4769.91;5040553;28;20284;-68
2021/03/24 05:20:50;;;;;;;0.70;0.60;;;3.10;99.90;;;3.45;100.00;4528.22;5036434;28;20198;-69
2021/03/24 05:23:21;;;;;;;0.70;0.60;;;2.90;99.90;;;3.47;100.00;5119.91;5035922;28;20182;-70
2021/03/24 05:26:06;;;;;;;0.70;0.70;;;2.90;99.90;;;3.42;100.00;5206.59;5011931;28;20288;-70
2021/03/24 05:28:39;;;;;;;0.70;0.60;;;2.90;99.90;;;3.55;100.00;5977.34;5035255;28;20190;-69
2021/03/24 05:31:14;;;;;;;0.70;0.60;;;3.00;99.90;;;3.47;100.00;6073.41;5039603;28;20720;-69
2021/03/24 05:33:47;;;;;;;0.70;0.60;;;2.90;99.90;;;3.35;100.00;5819.50;5034550;28;20217;-68
2021/03/24 05:36:20;;;;;;;0.70;0.60;;;2.80;99.90;;;3.50;100.00;6695.56;5029460;28;20338;-68
2021/03/24 05:38:50;;;;;;;0.70;0.60;;;2.90;99.90;;;3.58;100.00;6682.00;5037757;28;20200;-68
2021/03/24 05:41:35;;;;;;;0.70;0.60;;;3.00;99.90;;;3.48;100.00;6248.41;5040775;28;20190;-69
2021/03/24 05:44:36;;;;;;;0.70;0.60;;;3.00;99.90;;;3.36;100.00;6004.28;5033340;28;20188;-69
2021/03/24 05:47:37;;;;;;;0.70;0.65;;;2.90;99.90;;;3.33;100.00;6408.13;5034175;28;20190;-69
2021/03/24 05:50:53;;;;;;;0.70;0.60;;;2.80;99.90;;;3.26;100.00;6786.41;5028867;28;20185;-69
2021/03/24 05:54:06;;;;;;;0.70;0.60;;;2.80;99.90;;;3.23;100.00;6925.66;4993994;28;20199;-69
2021/03/24 05:56:54;;;;;;;0.70;0.68;;;2.70;99.90;;;3.22;100.00;7512.09;5034401;28;20236;-69
2021/03/24 05:59:30;;;;;;;0.70;0.55;;;2.70;99.90;;;3.25;100.00;8119.38;5034880;28;20194;-69
2021/03/24 06:02:03;;;;;;;0.70;0.60;;;2.70;99.90;;;3.31;100.00;8764.94;5025499;28;20194;-69
2021/03/24 06:04:36;;;;;;;0.70;0.70;;;2.80;99.90;;;3.46;100.00;8865.31;5031613;28;20297;-69
2021/03/24 06:07:56;;;;;;;0.70;0.70;;;2.90;99.90;;;3.56;100.00;8445.25;5030730;28;20678;-69
2021/03/24 06:10:45;;;;;;;0.70;0.60;;;3.00;99.90;;;3.71;100.00;8785.59;5034668;28;20482;-70
2021/03/24 06:14:12;;;;;;;0.70;0.60;;;3.10;99.90;;;4.02;100.00;9444.63;5034985;28;20190;-69
2021/03/24 06:17:12;;;;;;;0.70;0.60;;;3.40;99.90;;;4.22;100.00;8868.63;5035861;28;20178;-69
2021/03/24 06:19:53;;;;;;;0.73;0.70;;;3.50;99.90;;;4.24;100.00;7798.53;5038109;28;20259;-70
2021/03/24 06:22:35;;;;;;;0.70;0.60;;;3.50;99.90;;;4.28;100.00;7866.84;5041065;28;20224;-69
2021/03/24 06:25:25;;;;;;;0.70;0.70;;;3.60;99.90;;;4.32;100.00;7667.53;5031622;28;20198;-69
2021/03/24 06:28:21;;;;;;;0.70;0.60;;;3.60;99.90;;;4.44;100.00;7759.78;5043977;28;20196;-69
2021/03/24 06:31:10;;;;;;;0.70;0.60;;;3.70;99.90;;;4.49;100.00;7427.91;5030982;28;20201;-69
2021/03/24 06:34:24;;;;;;;0.70;0.70;;;3.70;99.90;;;4.57;100.00;8059.94;5032499;28;20210;-69
2021/03/24 06:37:29;;;;;;;0.70;0.60;;;3.80;99.90;;;4.76;100.00;7798.28;5039978;28;20213;-69
2021/03/24 06:40:27;;;;;;;0.70;0.60;;;4.00;99.90;;;4.85;100.00;6874.03;5015758;28;20226;-70
2021/03/24 06:43:16;;;;;;;0.70;0.68;;;4.10;99.90;;;4.98;100.00;6065.28;5026445;28;20210;-70
2021/03/24 06:46:04;;;;;;;0.70;0.60;;;4.20;99.90;;;5.08;100.00;5879.22;5043417;28;20194;-70
2021/03/24 06:48:51;;;;;;;0.70;0.60;;;4.30;99.90;;;5.17;100.00;5322.53;5040397;28;20217;-70
2021/03/24 06:52:13;;;;;;;0.70;0.60;;;4.40;99.90;;;5.20;100.00;5222.78;5041988;28;20198;-69
2021/03/24 06:55:53;;;;;;;0.70;0.60;;;4.40;99.90;;;5.53;100.00;3955.94;5041309;28;20665;-70
2021/03/24 06:59:29;;;;;;;0.70;0.60;;;4.60;99.90;;;5.54;100.00;2559.59;5025383;28;20241;-70
2021/03/24 07:02:35;;;;;;;0.70;0.70;;;4.70;99.90;;;5.65;100.00;2795.94;5010946;28;20199;-71
2021/03/24 07:05:41;;;;;;;0.70;0.70;;;4.80;99.90;;;5.81;100.00;1736.44;5005649;28;20222;-70
2021/03/24 07:08:54;;;;;;;0.70;0.60;;;4.90;99.90;;;5.91;100.00;220.91;5052826;28;20708;-70
2021/03/24 07:12:18;;;;;;;0.65;0.55;;;5.00;99.90;;;6.17;100.00;2508.53;5022285;28;20296;-70
2021/03/24 07:15:17;;;;;;;0.80;0.80;;;5.20;99.90;;;6.69;100.00;1651.84;5074085;28;20585;-70
2021/03/24 07:18:33;;;;;;;0.70;0.50;;;5.60;99.90;;;7.06;100.00;-4269.81;5049314;28;20283;-70
2021/03/24 07:21:52;;;;;;;0.70;0.60;;;6.00;99.90;;;7.69;100.00;-14674.19;5044186;28;21036;-70
2021/03/24 07:24:51;;;;;;;0.70;0.60;;;6.40;99.90;;;8.06;100.00;-19762.13;5019084;28;20959;-70
2021/03/24 07:28:46;;;;;;;0.70;0.50;;;6.60;99.90;;;8.19;100.00;-20905.19;5034907;28;20834;-71
2021/03/24 07:31:57;;;;;;;0.70;0.50;;;6.70;99.90;;;8.38;100.00;-20910.34;5023785;28;20474;-70
2021/03/24 07:34:46;;;;;;;1.57;1.23;;;6.90;99.90;;;8.62;100.00;-20916.72;5031999;28;20463;-70
2021/03/24 07:37:44;;;;;;;0.70;0.60;;;7.10;99.90;;;8.76;100.00;-20920.47;5031171;28;20464;-70
2021/03/24 07:40:37;;;;;;;1.13;1.07;;;7.30;99.90;;;8.94;100.00;-20925.44;5031685;28;20437;-71
2021/03/24 07:43:29;;;;;;;1.17;1.07;;;7.20;99.90;;;9.05;100.00;-20928.50;5031107;28;20997;-71
2021/03/24 07:46:17;;;;;;;0.80;0.80;;;7.30;99.90;;;9.64;100.00;-20944.56;5032883;28;20522;-71
2021/03/24 07:49:24;;;;;;;0.70;0.70;;;7.70;99.90;;;9.98;100.00;-20953.56;5033805;28;21066;-71
2021/03/24 07:52:10;;;;;;;0.70;0.57;;;7.80;99.90;;;9.67;100.00;-20945.25;5015031;28;20512;-70
2021/03/24 07:54:47;;;;;;;0.70;0.60;;;8.00;99.90;;;9.63;100.00;-20944.28;5033367;28;20460;-71
2021/03/24 07:57:29;;;;;;;2.00;1.80;;;8.20;99.90;;;10.10;100.00;-20956.88;5032336;28;20431;-71
2021/03/24 08:00:09;;;;;;;1.00;0.90;;;8.50;99.90;;;10.71;100.00;-20973.34;5028393;28;20478;-71
2021/03/24 08:02:58;;;;;;;0.73;0.60;;;8.80;99.90;;;11.29;100.00;-20989.13;5036694;28;20517;-71
2021/03/24 08:06:22;;;;;;;0.80;0.80;;;9.20;99.90;;;12.36;100.00;-21018.13;5042853;28;20529;-71
2021/03/24 08:09:18;;;;;;;2.33;2.23;;;9.70;99.90;;;12.64;100.00;-21025.72;5038397;28;20534;-71
2021/03/24 08:12:01;;;;;;;0.70;0.60;;;10.00;99.90;;;13.60;100.00;-21051.66;5031504;28;20927;-71
2021/03/24 08:15:03;;;;;;;1.13;1.00;;;10.30;99.90;;;13.72;100.00;-21054.81;5033807;28;20458;-71
2021/03/24 08:17:45;;;;;;;0.80;0.80;;;10.50;99.90;;;13.92;100.00;-21060.31;5031437;28;20487;-71
2021/03/24 08:20:30;;;;;;;1.40;1.30;;;10.50;99.90;;;14.19;100.00;-21067.50;5032499;28;20491;-71
2021/03/24 08:23:59;;;;;;;0.80;0.70;;;10.70;99.90;;;13.84;100.00;-21057.97;5033519;28;20450;-71
2021/03/24 08:26:33;;;;;;;0.70;0.60;;;11.10;99.90;;;15.20;100.00;-21094.75;5033327;28;20443;-71
2021/03/24 08:29:09;;;;;;;0.70;0.60;;;11.40;99.90;;;14.98;100.00;-21088.81;5031090;28;20895;-71
2021/03/24 08:32:32;;;;;;;1.27;1.10;;;11.40;99.90;;;15.37;100.00;-21099.41;5031958;28;20603;-71
2021/03/24 08:35:35;;;;;;;0.90;0.80;;;11.10;99.90;;;15.54;100.00;-21103.81;5032554;28;20526;-71
2021/03/24 08:38:34;;;;;;;0.70;0.60;;;11.10;99.90;;;15.01;100.00;-21089.50;5033341;28;20413;-71
2021/03/24 08:42:09;;;;;;;0.73;0.63;;;11.60;99.90;;;16.39;100.00;-21126.91;5029630;28;20467;-72
2021/03/24 08:44:45;;;;;;;1.47;1.37;;;11.90;99.90;;;15.93;100.00;-21114.53;4977348;28;20439;-71
2021/03/24 08:47:18;;;;;;;6.27;2.70;;;11.90;99.90;;;16.18;100.00;-21121.13;5031545;28;20771;-71
2021/03/24 08:49:50;;;;;;;0.87;0.87;;;11.70;99.90;;;15.41;100.00;-21100.50;5021539;28;20985;-71
2021/03/24 08:52:39;;;;;;;0.80;0.60;;;11.70;99.90;;;15.29;100.00;-21097.22;5032295;28;20457;-71
2021/03/24 08:55:26;;;;;;;0.70;0.60;;;11.60;99.90;;;15.75;100.00;-21109.59;5025200;28;20548;-71
2021/03/24 08:58:20;;;;;;;2.30;1.67;;;11.80;99.90;;;15.11;100.00;-21092.41;5024043;28;20466;-71
2021/03/24 09:01:02;;;;;;;1.37;1.07;;;12.40;99.60;;;15.13;100.00;-21092.81;5047562;28;20431;-71
2021/03/24 09:04:15;;;;;;;0.80;0.60;;;12.30;96.80;;;15.97;100.00;-21115.38;5031755;28;20457;-71
2021/03/24 09:06:56;;;;;;;1.77;1.67;;;12.20;97.10;;;16.42;100.00;-21127.72;5031529;28;20460;-71
2021/03/24 09:09:45;;;;;;;0.80;0.63;;;12.60;97.30;;;15.74;100.00;-21109.19;5032752;28;20508;-71
2021/03/24 09:12:21;;;;;;;0.80;0.80;;;12.90;94.70;;;16.27;100.00;-21123.59;5031627;28;20422;-71
2021/03/24 09:14:58;;;;;;;2.27;0.83;;;13.30;93.30;;;16.49;100.00;-21129.38;5032911;28;21022;-71
2021/03/24 09:18:07;;;;;;;1.00;0.90;;;13.70;92.40;;;16.99;100.00;-21142.81;5031460;28;20441;-71
2021/03/24 09:21:04;;;;;;;1.83;1.10;;;13.90;90.80;;;17.27;100.00;-21150.38;5027583;28;20990;-71
2021/03/24 09:24:02;;;;;;;1.50;1.30;;;14.00;88.00;;;17.34;100.00;-21152.44;5031681;28;20443;-72
2021/03/24 09:27:18;;;;;;;1.10;1.00;;;13.60;86.10;;;17.55;100.00;-21158.03;5028741;28;20480;-71
2021/03/24 09:30:48;;;;;;;1.10;1.00;;;13.70;87.80;;;17.62;100.00;-21159.97;5031384;28;20452;-71
2021/03/24 09:33:48;;;;;;;0.90;0.60;;;14.50;87.60;;;17.74;100.00;-21162.97;5026483;28;20443;-72
2021/03/24 09:36:51;;;;;;;0.70;0.60;;;14.90;78.10;;;18.62;100.00;-21186.53;5031740;28;20210;-71
2021/03/24 09:39:27;;;;;;;1.10;0.90;;;15.10;73.10;;;18.16;100.00;-21174.34;5026155;28;20523;-71
2021/03/24 09:42:01;;;;;;;3.70;1.03;;;15.00;72.50;;;18.43;100.00;-21181.47;5031686;28;20442;-71
2021/03/24 09:44:36;;;;;;;3.90;1.77;;;14.50;74.60;;;18.80;100.00;-21191.63;5033712;28;20790;-71
2021/03/24 09:47:39;;;;;;;1.97;1.87;;;14.70;71.30;;;18.24;100.00;-21176.56;5033076;28;20438;-71
2021/03/24 09:50:34;;;;;;;8.70;1.17;;;14.90;72.60;;;18.42;100.00;-21181.22;5029374;28;20951;-71
2021/03/24 09:53:09;;;;;;;0.80;0.70;;;14.90;71.10;;;18.90;100.00;-21194.22;5036070;28;20826;-71
2021/03/24 09:55:40;;;;;;;0.70;0.60;;;15.10;69.10;;;18.55;100.00;-21184.75;5031161;28;20809;-71
2021/03/24 09:58:48;;;;;;;1.80;1.63;;;15.30;64.80;;;18.44;100.00;-21181.75;5028598;28;20444;-71
2021/03/24 10:01:40;;;;;;;1.83;1.10;;;15.70;65.10;;;20.09;100.00;-21226.06;5050087;28;20441;-71
2021/03/24 10:04:40;;;;;;;1.47;1.27;;;16.20;59.60;;;18.88;100.00;-21193.53;5037722;28;20559;-71
2021/03/24 10:07:15;;;;;;;0.90;0.90;;;16.30;58.90;;;19.78;100.00;-21217.88;5026799;28;20444;-71
2021/03/24 10:09:54;;;;;;;8.63;1.47;;;16.40;57.00;;;20.42;100.00;-21234.94;5035971;28;20424;-71
2021/03/24 10:12:36;;;;;;;1.17;0.63;;;16.80;51.00;;;18.87;100.00;-21193.25;5035324;28;21011;-71
2021/03/24 10:15:22;;;;;;;0.80;0.70;;;16.70;51.10;;;19.40;100.00;-21207.47;5050309;28;20464;-71
2021/03/24 10:17:57;;;;;;;1.17;1.10;;;16.70;47.40;;;19.50;100.00;-21210.34;5037453;28;20432;-71
2021/03/24 10:20:35;;;;;;;2.23;2.00;;;16.70;50.50;;;18.72;100.00;-21189.44;5034776;28;20518;-71
2021/03/24 10:23:12;;;;;;;0.70;0.60;;;16.10;50.50;;;18.79;100.00;-21191.22;5041761;28;20444;-71
2021/03/24 10:25:42;;;;;;;2.90;1.43;;;16.20;51.50;;;19.12;100.00;-21200.09;5037854;28;20474;-72
2021/03/24 10:28:18;;;;;;;0.80;0.70;;;16.30;51.40;;;19.84;100.00;-21219.25;5042182;28;20437;-72
2021/03/24 10:30:57;;;;;;;1.93;1.20;;;15.80;47.50;;;18.64;100.00;-21187.22;5038826;28;20464;-71
2021/03/24 10:33:32;;;;;;;1.23;1.13;;;16.40;51.00;;;19.65;100.00;-21214.19;5042440;28;20975;-71
2021/03/24 10:36:05;;;;;;;3.23;0.97;;;16.40;46.30;;;19.31;100.00;-21205.28;5044934;28;20486;-71
2021/03/24 10:38:50;;;;;;;1.10;0.93;;;16.20;45.20;;;19.02;100.00;-21197.50;5043380;28;20444;-71
2021/03/24 10:41:46;;;;;;;1.20;0.90;;;16.70;48.90;;;19.42;100.00;-21208.03;5026272;28;20441;-71
2021/03/24 10:44:22;;;;;;;1.20;0.80;;;17.00;47.80;;;19.73;100.00;-21216.50;5022594;28;20764;-71
2021/03/24 10:47:05;;;;;;;3.03;1.97;;;17.10;44.40;;;20.77;100.00;-21244.09;5038052;28;20610;-72
2021/03/24 10:49:41;;;;;;;1.17;1.07;;;16.50;43.10;;;20.37;100.00;-21233.59;5042712;28;20814;-72
2021/03/24 10:52:18;;;;;;;1.30;1.20;;;16.40;46.60;;;18.87;100.00;-21193.25;5036652;28;20952;-72
2021/03/24 10:54:57;;;;;;;0.87;0.87;;;16.30;45.30;;;19.17;100.00;-21201.31;5031111;28;20443;-72
2021/03/24 10:57:51;;;;;;;1.30;1.20;;;16.70;48.30;;;19.29;100.00;-21204.59;5031841;28;20432;-71
2021/03/24 11:00:26;;;;;;;0.70;0.60;;;17.30;43.60;;;19.97;100.00;-21222.94;5037348;28;20811;-71
2021/03/24 11:03:03;;;;;;;1.73;1.17;;;16.70;43.00;;;19.89;100.00;-21220.63;5037578;28;20443;-71
2021/03/24 11:05:40;;;;;;;1.20;1.10;;;16.70;44.10;;;19.63;100.00;-21213.63;5022674;28;20543;-71
2021/03/24 11:08:26;;;;;;;0.80;0.77;;;17.20;43.40;;;19.93;100.00;-21221.84;5043969;28;20451;-72
2021/03/24 11:11:04;;;;;;;0.70;0.60;;;17.30;41.10;;;19.79;100.00;-21218.16;5042522;28;20960;-72
2021/03/24 11:13:39;;;;;;;1.63;1.53;;;17.80;39.30;;;20.35;100.00;-21232.91;5045347;28;20437;-72
2021/03/24 11:16:20;;;;;;;0.80;0.80;;;17.80;36.50;;;19.90;100.00;-21220.88;5028818;28;20464;-71
2021/03/24 11:18:51;;;;;;;0.70;0.60;;;18.00;36.10;;;19.95;100.00;-21222.25;5034331;28;20510;-71
2021/03/24 11:21:41;;;;;;;0.70;0.60;;;17.50;36.90;;;20.19;100.00;-21228.66;5043747;28;20455;-72
2021/03/24 11:24:25;;;;;;;0.70;0.60;;;17.70;36.90;;;20.27;100.00;-21231.00;5035980;28;20511;-71